sensor_id;sensor_type;location;lat;lon;timestamp;pressure;altitude;pressure_sealevel;temperature
74493;BMP180;62978;51.094;-115.362;2022-08-21T00:01:50;86841.60;;;39.62
74493;BMP180;62978;51.094;-115.362;2022-08-21T00:04:22;86835.60;;;40.44
74493;BMP180;62978;51.094;-115.362;2022-08-21T00:16:03;86824.00;;;41.38
74493;BMP180;62978;51.094;-115.362;2022-08-21T00:28:56;86852.40;;;42.54
74493;BMP180;62978;51.094;-115.362;2022-08-21T00:32:42;86878.00;;;40.02
74493;BMP180;62978;51.094;-115.362;2022-08-21T00:35:00;86881.40;;;37.24
74493;BMP180;62978;51.094;-115.362;2022-08-21T00:37:27;86852.00;;;35.64
74493;BMP180;62978;51.094;-115.362;2022-08-21T00:40:20;86872.40;;;36.50
74493;BMP180;62978;51.094;-115.362;2022-08-21T00:43:49;86878.40;;;35.74
74493;BMP180;62978;51.094;-115.362;2022-08-21T00:46:40;86871.00;;;34.66
74493;BMP180;62978;51.094;-115.362;2022-08-21T00:49:13;86840.00;;;34.48
74493;BMP180;62978;51.094;-115.362;2022-08-21T00:55:12;86878.80;;;33.80
74493;BMP180;62978;51.094;-115.362;2022-08-21T01:01:28;86877.60;;;33.06
74493;BMP180;62978;51.094;-115.362;2022-08-21T01:04:05;86863.20;;;33.24
74493;BMP180;62978;51.094;-115.362;2022-08-21T01:10:28;86856.80;;;33.08
74493;BMP180;62978;51.094;-115.362;2022-08-21T01:13:10;86856.80;;;34.06
74493;BMP180;62978;51.094;-115.362;2022-08-21T01:16:12;86868.40;;;34.60
74493;BMP180;62978;51.094;-115.362;2022-08-21T01:22:10;86870.40;;;33.76
74493;BMP180;62978;51.094;-115.362;2022-08-21T01:24:47;86874.40;;;33.30
74493;BMP180;62978;51.094;-115.362;2022-08-21T01:27:30;86873.60;;;32.88
74493;BMP180;62978;51.094;-115.362;2022-08-21T01:30:18;86877.20;;;32.40
74493;BMP180;62978;51.094;-115.362;2022-08-21T01:32:56;86878.20;;;31.98
74493;BMP180;62978;51.094;-115.362;2022-08-21T01:35:46;86875.00;;;31.54
74493;BMP180;62978;51.094;-115.362;2022-08-21T01:39:22;86878.00;;;31.10
74493;BMP180;62978;51.094;-115.362;2022-08-21T01:41:58;86878.20;;;30.50
74493;BMP180;62978;51.094;-115.362;2022-08-21T01:44:29;86880.60;;;29.74
74493;BMP180;62978;51.094;-115.362;2022-08-21T01:47:27;86882.00;;;28.94
74493;BMP180;62978;51.094;-115.362;2022-08-21T01:49:58;86883.80;;;28.40
74493;BMP180;62978;51.094;-115.362;2022-08-21T01:52:26;86884.00;;;28.20
74493;BMP180;62978;51.094;-115.362;2022-08-21T01:55:22;86884.40;;;27.90
74493;BMP180;62978;51.094;-115.362;2022-08-21T01:57:50;86889.00;;;27.60
74493;BMP180;62978;51.094;-115.362;2022-08-21T02:00:22;86896.80;;;27.40
74493;BMP180;62978;51.094;-115.362;2022-08-21T02:03:19;86895.00;;;27.20
74493;BMP180;62978;51.094;-115.362;2022-08-21T02:05:47;86897.20;;;26.90
74493;BMP180;62978;51.094;-115.362;2022-08-21T02:08:17;86899.00;;;26.60
74493;BMP180;62978;51.094;-115.362;2022-08-21T02:10:48;86902.60;;;26.32
74493;BMP180;62978;51.094;-115.362;2022-08-21T02:13:21;86907.20;;;26.10
74493;BMP180;62978;51.094;-115.362;2022-08-21T02:15:58;86913.00;;;25.80
74493;BMP180;62978;51.094;-115.362;2022-08-21T02:18:25;86917.80;;;25.70
74493;BMP180;62978;51.094;-115.362;2022-08-21T02:20:53;86919.60;;;25.50
74493;BMP180;62978;51.094;-115.362;2022-08-21T02:23:20;86922.40;;;25.30
74493;BMP180;62978;51.094;-115.362;2022-08-21T02:25:48;86928.60;;;25.10
74493;BMP180;62978;51.094;-115.362;2022-08-21T02:28:24;86930.60;;;24.90
74493;BMP180;62978;51.094;-115.362;2022-08-21T02:31:05;86934.60;;;24.70
74493;BMP180;62978;51.094;-115.362;2022-08-21T02:33:32;86939.20;;;24.40
74493;BMP180;62978;51.094;-115.362;2022-08-21T02:36:01;86941.00;;;24.28
74493;BMP180;62978;51.094;-115.362;2022-08-21T02:38:34;86940.00;;;24.10
74493;BMP180;62978;51.094;-115.362;2022-08-21T02:41:18;86943.60;;;23.90
74493;BMP180;62978;51.094;-115.362;2022-08-21T02:43:46;86947.60;;;23.70
74493;BMP180;62978;51.094;-115.362;2022-08-21T02:49:12;86945.80;;;23.40
74493;BMP180;62978;51.094;-115.362;2022-08-21T02:51:49;86954.00;;;23.30
74493;BMP180;62978;51.094;-115.362;2022-08-21T02:54:16;86956.60;;;23.10
74493;BMP180;62978;51.094;-115.362;2022-08-21T02:56:53;86959.80;;;22.90
74493;BMP180;62978;51.094;-115.362;2022-08-21T02:59:29;86966.20;;;22.80
74493;BMP180;62978;51.094;-115.362;2022-08-21T03:02:12;86975.40;;;22.60
74493;BMP180;62978;51.094;-115.362;2022-08-21T03:04:58;86976.20;;;22.30
74493;BMP180;62978;51.094;-115.362;2022-08-21T03:07:29;86984.60;;;22.20
74493;BMP180;62978;51.094;-115.362;2022-08-21T03:10:12;86985.20;;;22.10
74493;BMP180;62978;51.094;-115.362;2022-08-21T03:15:36;86994.20;;;21.90
74493;BMP180;62978;51.094;-115.362;2022-08-21T03:18:32;86996.80;;;21.80
74493;BMP180;62978;51.094;-115.362;2022-08-21T03:24:12;87003.60;;;21.80
74493;BMP180;62978;51.094;-115.362;2022-08-21T03:27:33;87010.00;;;21.80
74493;BMP180;62978;51.094;-115.362;2022-08-21T03:30:50;87009.40;;;21.72
74493;BMP180;62978;51.094;-115.362;2022-08-21T03:33:45;87008.20;;;21.74
74493;BMP180;62978;51.094;-115.362;2022-08-21T03:36:33;87007.80;;;21.80
74493;BMP180;62978;51.094;-115.362;2022-08-21T03:39:12;87008.00;;;21.76
74493;BMP180;62978;51.094;-115.362;2022-08-21T03:41:39;87006.20;;;21.78
74493;BMP180;62978;51.094;-115.362;2022-08-21T03:44:16;87007.40;;;21.70
74493;BMP180;62978;51.094;-115.362;2022-08-21T03:47:24;87008.40;;;21.70
74493;BMP180;62978;51.094;-115.362;2022-08-21T03:49:52;87011.40;;;21.70
74493;BMP180;62978;51.094;-115.362;2022-08-21T03:52:20;87010.20;;;21.70
74493;BMP180;62978;51.094;-115.362;2022-08-21T03:54:48;87016.60;;;21.70
74493;BMP180;62978;51.094;-115.362;2022-08-21T03:57:28;87018.80;;;21.62
74493;BMP180;62978;51.094;-115.362;2022-08-21T03:59:56;87022.60;;;21.66
74493;BMP180;62978;51.094;-115.362;2022-08-21T04:02:57;87022.80;;;21.60
74493;BMP180;62978;51.094;-115.362;2022-08-21T04:05:25;87030.00;;;21.60
74493;BMP180;62978;51.094;-115.362;2022-08-21T04:08:03;87030.60;;;21.60
74493;BMP180;62978;51.094;-115.362;2022-08-21T04:10:35;87032.80;;;21.64
74493;BMP180;62978;51.094;-115.362;2022-08-21T04:13:05;87042.80;;;21.60
74493;BMP180;62978;51.094;-115.362;2022-08-21T04:15:36;87038.00;;;21.60
74493;BMP180;62978;51.094;-115.362;2022-08-21T04:18:05;87040.00;;;21.60
74493;BMP180;62978;51.094;-115.362;2022-08-21T04:20:33;87043.00;;;21.58
74493;BMP180;62978;51.094;-115.362;2022-08-21T04:23:04;87050.20;;;21.52
74493;BMP180;62978;51.094;-115.362;2022-08-21T04:25:37;87054.20;;;21.50
74493;BMP180;62978;51.094;-115.362;2022-08-21T04:28:04;87056.40;;;21.48
74493;BMP180;62978;51.094;-115.362;2022-08-21T04:30:33;87056.60;;;21.42
74493;BMP180;62978;51.094;-115.362;2022-08-21T04:33:00;87056.00;;;21.40
74493;BMP180;62978;51.094;-115.362;2022-08-21T04:35:29;87058.00;;;21.40
74493;BMP180;62978;51.094;-115.362;2022-08-21T04:38:01;87056.80;;;21.40
74493;BMP180;62978;51.094;-115.362;2022-08-21T04:40:32;87062.40;;;21.40
74493;BMP180;62978;51.094;-115.362;2022-08-21T04:43:08;87066.20;;;21.40
74493;BMP180;62978;51.094;-115.362;2022-08-21T04:45:44;87062.60;;;21.40
74493;BMP180;62978;51.094;-115.362;2022-08-21T04:48:14;87068.00;;;21.40
74493;BMP180;62978;51.094;-115.362;2022-08-21T04:53:47;87066.20;;;21.40
74493;BMP180;62978;51.094;-115.362;2022-08-21T04:56:32;87065.00;;;21.40
74493;BMP180;62978;51.094;-115.362;2022-08-21T04:59:21;87070.00;;;21.30
74493;BMP180;62978;51.094;-115.362;2022-08-21T05:01:50;87074.60;;;21.30
74493;BMP180;62978;51.094;-115.362;2022-08-21T05:04:25;87080.00;;;21.20
74493;BMP180;62978;51.094;-115.362;2022-08-21T05:06:58;87078.40;;;21.16
74493;BMP180;62978;51.094;-115.362;2022-08-21T05:09:27;87082.40;;;21.10
74493;BMP180;62978;51.094;-115.362;2022-08-21T05:11:56;87089.00;;;21.10
74493;BMP180;62978;51.094;-115.362;2022-08-21T05:14:25;87095.20;;;21.00
74493;BMP180;62978;51.094;-115.362;2022-08-21T05:16:59;87095.40;;;20.94
74493;BMP180;62978;51.094;-115.362;2022-08-21T05:19:27;87097.60;;;20.90
74493;BMP180;62978;51.094;-115.362;2022-08-21T05:21:58;87094.80;;;20.80
74493;BMP180;62978;51.094;-115.362;2022-08-21T05:24:26;87094.00;;;20.78
74493;BMP180;62978;51.094;-115.362;2022-08-21T05:26:53;87092.20;;;20.70
74493;BMP180;62978;51.094;-115.362;2022-08-21T05:29:21;87095.00;;;20.60
74493;BMP180;62978;51.094;-115.362;2022-08-21T05:31:49;87100.40;;;20.60
74493;BMP180;62978;51.094;-115.362;2022-08-21T05:34:22;87105.20;;;20.50
74493;BMP180;62978;51.094;-115.362;2022-08-21T05:36:50;87103.80;;;20.50
74493;BMP180;62978;51.094;-115.362;2022-08-21T05:39:17;87106.40;;;20.40
74493;BMP180;62978;51.094;-115.362;2022-08-21T05:41:48;87112.20;;;20.40
74493;BMP180;62978;51.094;-115.362;2022-08-21T05:44:15;87110.40;;;20.30
74493;BMP180;62978;51.094;-115.362;2022-08-21T05:46:43;87108.60;;;20.20
74493;BMP180;62978;51.094;-115.362;2022-08-21T05:49:11;87109.80;;;20.16
74493;BMP180;62978;51.094;-115.362;2022-08-21T05:51:41;87106.60;;;20.06
74493;BMP180;62978;51.094;-115.362;2022-08-21T05:54:09;87109.40;;;19.94
74493;BMP180;62978;51.094;-115.362;2022-08-21T05:56:37;87111.80;;;19.88
74493;BMP180;62978;51.094;-115.362;2022-08-21T05:59:05;87113.00;;;19.78
74493;BMP180;62978;51.094;-115.362;2022-08-21T06:01:33;87116.80;;;19.60
74493;BMP180;62978;51.094;-115.362;2022-08-21T06:04:00;87115.80;;;19.54
74493;BMP180;62978;51.094;-115.362;2022-08-21T06:06:28;87118.20;;;19.46
74493;BMP180;62978;51.094;-115.362;2022-08-21T06:08:58;87116.80;;;19.30
74493;BMP180;62978;51.094;-115.362;2022-08-21T06:11:25;87119.00;;;19.30
74493;BMP180;62978;51.094;-115.362;2022-08-21T06:13:53;87121.20;;;19.20
74493;BMP180;62978;51.094;-115.362;2022-08-21T06:16:20;87123.60;;;19.16
74493;BMP180;62978;51.094;-115.362;2022-08-21T06:18:48;87132.40;;;19.10
74493;BMP180;62978;51.094;-115.362;2022-08-21T06:21:16;87131.80;;;19.00
74493;BMP180;62978;51.094;-115.362;2022-08-21T06:23:46;87136.40;;;19.00
74493;BMP180;62978;51.094;-115.362;2022-08-21T06:26:14;87134.40;;;18.90
74493;BMP180;62978;51.094;-115.362;2022-08-21T06:28:43;87138.60;;;18.90
74493;BMP180;62978;51.094;-115.362;2022-08-21T06:31:20;87145.20;;;18.80
74493;BMP180;62978;51.094;-115.362;2022-08-21T06:33:48;87145.60;;;18.80
74493;BMP180;62978;51.094;-115.362;2022-08-21T06:36:16;87147.80;;;18.70
74493;BMP180;62978;51.094;-115.362;2022-08-21T06:38:46;87149.00;;;18.70
74493;BMP180;62978;51.094;-115.362;2022-08-21T06:41:14;87148.00;;;18.64
74493;BMP180;62978;51.094;-115.362;2022-08-21T06:43:41;87148.20;;;18.60
74493;BMP180;62978;51.094;-115.362;2022-08-21T06:46:17;87147.20;;;18.60
74493;BMP180;62978;51.094;-115.362;2022-08-21T06:48:48;87151.00;;;18.50
74493;BMP180;62978;51.094;-115.362;2022-08-21T06:51:16;87150.80;;;18.50
74493;BMP180;62978;51.094;-115.362;2022-08-21T06:53:47;87152.00;;;18.50
74493;BMP180;62978;51.094;-115.362;2022-08-21T06:56:14;87154.00;;;18.50
74493;BMP180;62978;51.094;-115.362;2022-08-21T06:58:42;87156.20;;;18.40
74493;BMP180;62978;51.094;-115.362;2022-08-21T07:01:10;87154.80;;;18.40
74493;BMP180;62978;51.094;-115.362;2022-08-21T07:03:45;87160.80;;;18.40
74493;BMP180;62978;51.094;-115.362;2022-08-21T07:06:13;87162.20;;;18.44
74493;BMP180;62978;51.094;-115.362;2022-08-21T07:08:40;87162.00;;;18.42
74493;BMP180;62978;51.094;-115.362;2022-08-21T07:11:20;87166.00;;;18.46
74493;BMP180;62978;51.094;-115.362;2022-08-21T07:13:49;87167.20;;;18.50
74493;BMP180;62978;51.094;-115.362;2022-08-21T07:16:22;87167.20;;;18.48
74493;BMP180;62978;51.094;-115.362;2022-08-21T07:18:51;87169.40;;;18.44
74493;BMP180;62978;51.094;-115.362;2022-08-21T07:21:18;87167.20;;;18.40
74493;BMP180;62978;51.094;-115.362;2022-08-21T07:23:49;87167.60;;;18.40
74493;BMP180;62978;51.094;-115.362;2022-08-21T07:26:21;87169.80;;;18.30
74493;BMP180;62978;51.094;-115.362;2022-08-21T07:29:06;87167.00;;;18.30
74493;BMP180;62978;51.094;-115.362;2022-08-21T07:31:33;87170.80;;;18.28
74493;BMP180;62978;51.094;-115.362;2022-08-21T07:34:01;87170.60;;;18.20
74493;BMP180;62978;51.094;-115.362;2022-08-21T07:36:28;87172.40;;;18.18
74493;BMP180;62978;51.094;-115.362;2022-08-21T07:38:56;87173.00;;;18.10
74493;BMP180;62978;51.094;-115.362;2022-08-21T07:41:29;87171.80;;;18.10
74493;BMP180;62978;51.094;-115.362;2022-08-21T07:43:57;87173.40;;;18.00
74493;BMP180;62978;51.094;-115.362;2022-08-21T07:46:55;87175.20;;;17.90
74493;BMP180;62978;51.094;-115.362;2022-08-21T07:49:38;87177.20;;;17.94
74493;BMP180;62978;51.094;-115.362;2022-08-21T07:52:06;87176.20;;;17.90
74493;BMP180;62978;51.094;-115.362;2022-08-21T07:54:37;87181.60;;;17.90
74493;BMP180;62978;51.094;-115.362;2022-08-21T07:57:13;87178.20;;;17.82
74493;BMP180;62978;51.094;-115.362;2022-08-21T07:59:40;87179.20;;;17.80
74493;BMP180;62978;51.094;-115.362;2022-08-21T08:02:08;87181.60;;;17.70
74493;BMP180;62978;51.094;-115.362;2022-08-21T08:04:42;87186.00;;;17.70
74493;BMP180;62978;51.094;-115.362;2022-08-21T08:07:09;87183.20;;;17.70
74493;BMP180;62978;51.094;-115.362;2022-08-21T08:09:37;87186.20;;;17.60
74493;BMP180;62978;51.094;-115.362;2022-08-21T08:12:05;87186.00;;;17.60
74493;BMP180;62978;51.094;-115.362;2022-08-21T08:14:36;87188.00;;;17.58
74493;BMP180;62978;51.094;-115.362;2022-08-21T08:17:04;87185.60;;;17.50
74493;BMP180;62978;51.094;-115.362;2022-08-21T08:19:33;87189.40;;;17.40
74493;BMP180;62978;51.094;-115.362;2022-08-21T08:22:01;87187.80;;;17.40
74493;BMP180;62978;51.094;-115.362;2022-08-21T08:24:28;87186.60;;;17.40
74493;BMP180;62978;51.094;-115.362;2022-08-21T08:26:56;87187.60;;;17.40
74493;BMP180;62978;51.094;-115.362;2022-08-21T08:29:33;87186.00;;;17.30
74493;BMP180;62978;51.094;-115.362;2022-08-21T08:32:02;87186.40;;;17.30
74493;BMP180;62978;51.094;-115.362;2022-08-21T08:34:30;87190.40;;;17.30
74493;BMP180;62978;51.094;-115.362;2022-08-21T08:36:57;87194.80;;;17.30
74493;BMP180;62978;51.094;-115.362;2022-08-21T08:39:26;87195.20;;;17.20
74493;BMP180;62978;51.094;-115.362;2022-08-21T08:42:11;87197.00;;;17.20
74493;BMP180;62978;51.094;-115.362;2022-08-21T08:44:47;87194.80;;;17.20
74493;BMP180;62978;51.094;-115.362;2022-08-21T08:47:18;87198.60;;;17.20
74493;BMP180;62978;51.094;-115.362;2022-08-21T08:53:17;87201.40;;;17.10
74493;BMP180;62978;51.094;-115.362;2022-08-21T08:55:46;87209.00;;;17.00
74493;BMP180;62978;51.094;-115.362;2022-08-21T08:58:31;87209.60;;;16.90
74493;BMP180;62978;51.094;-115.362;2022-08-21T09:01:18;87208.40;;;16.90
74493;BMP180;62978;51.094;-115.362;2022-08-21T09:03:50;87212.40;;;16.90
74493;BMP180;62978;51.094;-115.362;2022-08-21T09:09:30;87220.40;;;16.90
74493;BMP180;62978;51.094;-115.362;2022-08-21T09:15:36;87222.60;;;16.80
74493;BMP180;62978;51.094;-115.362;2022-08-21T09:18:14;87226.80;;;16.70
74493;BMP180;62978;51.094;-115.362;2022-08-21T09:21:06;87229.60;;;16.70
74493;BMP180;62978;51.094;-115.362;2022-08-21T09:24:09;87237.20;;;16.60
74493;BMP180;62978;51.094;-115.362;2022-08-21T09:27:11;87238.40;;;16.60
74493;BMP180;62978;51.094;-115.362;2022-08-21T09:29:50;87237.80;;;16.70
74493;BMP180;62978;51.094;-115.362;2022-08-21T09:32:21;87236.20;;;16.70
74493;BMP180;62978;51.094;-115.362;2022-08-21T09:35:09;87240.60;;;16.70
74493;BMP180;62978;51.094;-115.362;2022-08-21T09:38:03;87243.20;;;16.70
74493;BMP180;62978;51.094;-115.362;2022-08-21T09:40:46;87238.00;;;16.62
74493;BMP180;62978;51.094;-115.362;2022-08-21T09:43:24;87241.40;;;16.60
74493;BMP180;62978;51.094;-115.362;2022-08-21T09:46:07;87246.20;;;16.58
74493;BMP180;62978;51.094;-115.362;2022-08-21T09:48:49;87246.00;;;16.50
74493;BMP180;62978;51.094;-115.362;2022-08-21T09:51:24;87251.40;;;16.50
74493;BMP180;62978;51.094;-115.362;2022-08-21T09:54:15;87248.20;;;16.50
74493;BMP180;62978;51.094;-115.362;2022-08-21T09:57:05;87249.20;;;16.48
74493;BMP180;62978;51.094;-115.362;2022-08-21T10:02:47;87259.00;;;16.40
74493;BMP180;62978;51.094;-115.362;2022-08-21T10:05:33;87260.00;;;16.30
74493;BMP180;62978;51.094;-115.362;2022-08-21T10:08:01;87266.40;;;16.30
74493;BMP180;62978;51.094;-115.362;2022-08-21T10:10:36;87273.20;;;16.26
74493;BMP180;62978;51.094;-115.362;2022-08-21T10:13:19;87277.60;;;16.26
74493;BMP180;62978;51.094;-115.362;2022-08-21T10:16:00;87280.40;;;16.20
74493;BMP180;62978;51.094;-115.362;2022-08-21T10:24:44;87284.80;;;16.00
74493;BMP180;62978;51.094;-115.362;2022-08-21T10:27:52;87287.80;;;15.90
74493;BMP180;62978;51.094;-115.362;2022-08-21T10:33:37;87285.60;;;15.70
74493;BMP180;62978;51.094;-115.362;2022-08-21T10:36:34;87288.40;;;15.70
74493;BMP180;62978;51.094;-115.362;2022-08-21T10:39:29;87284.20;;;15.58
74493;BMP180;62978;51.094;-115.362;2022-08-21T10:42:25;87285.20;;;15.40
74493;BMP180;62978;51.094;-115.362;2022-08-21T10:45:10;87284.00;;;15.40
74493;BMP180;62978;51.094;-115.362;2022-08-21T10:47:56;87286.80;;;15.30
74493;BMP180;62978;51.094;-115.362;2022-08-21T10:50:52;87291.00;;;15.22
74493;BMP180;62978;51.094;-115.362;2022-08-21T10:53:59;87288.00;;;15.20
74493;BMP180;62978;51.094;-115.362;2022-08-21T10:56:36;87292.80;;;15.20
74493;BMP180;62978;51.094;-115.362;2022-08-21T11:02:40;87301.20;;;15.10
74493;BMP180;62978;51.094;-115.362;2022-08-21T11:05:31;87304.20;;;15.00
74493;BMP180;62978;51.094;-115.362;2022-08-21T11:08:26;87308.20;;;15.00
74493;BMP180;62978;51.094;-115.362;2022-08-21T11:11:15;87313.80;;;14.90
74493;BMP180;62978;51.094;-115.362;2022-08-21T11:14:34;87315.40;;;14.90
74493;BMP180;62978;51.094;-115.362;2022-08-21T11:17:13;87316.40;;;14.90
74493;BMP180;62978;51.094;-115.362;2022-08-21T11:20:20;87321.00;;;14.90
74493;BMP180;62978;51.094;-115.362;2022-08-21T11:23:03;87325.80;;;14.90
74493;BMP180;62978;51.094;-115.362;2022-08-21T11:26:10;87329.80;;;14.80
74493;BMP180;62978;51.094;-115.362;2022-08-21T11:29:09;87336.20;;;14.78
74493;BMP180;62978;51.094;-115.362;2022-08-21T11:34:54;87338.80;;;14.70
74493;BMP180;62978;51.094;-115.362;2022-08-21T11:50:28;87336.80;;;14.50
74493;BMP180;62978;51.094;-115.362;2022-08-21T11:56:19;87329.60;;;14.30
74493;BMP180;62978;51.094;-115.362;2022-08-21T11:59:00;87334.00;;;14.30
74493;BMP180;62978;51.094;-115.362;2022-08-21T12:01:42;87336.40;;;14.20
74493;BMP180;62978;51.094;-115.362;2022-08-21T12:04:31;87344.80;;;14.10
74493;BMP180;62978;51.094;-115.362;2022-08-21T12:07:37;87344.60;;;14.10
74493;BMP180;62978;51.094;-115.362;2022-08-21T12:10:17;87342.20;;;14.00
74493;BMP180;62978;51.094;-115.362;2022-08-21T12:13:27;87354.20;;;14.00
74493;BMP180;62978;51.094;-115.362;2022-08-21T12:16:07;87353.80;;;13.98
74493;BMP180;62978;51.094;-115.362;2022-08-21T12:18:38;87358.80;;;13.88
74493;BMP180;62978;51.094;-115.362;2022-08-21T12:21:26;87362.40;;;13.84
74493;BMP180;62978;51.094;-115.362;2022-08-21T12:26:57;87370.00;;;13.80
74493;BMP180;62978;51.094;-115.362;2022-08-21T12:29:36;87370.80;;;13.80
74493;BMP180;62978;51.094;-115.362;2022-08-21T12:35:02;87376.80;;;13.70
74493;BMP180;62978;51.094;-115.362;2022-08-21T12:38:00;87376.60;;;13.68
74493;BMP180;62978;51.094;-115.362;2022-08-21T12:40:42;87379.60;;;13.66
74493;BMP180;62978;51.094;-115.362;2022-08-21T12:43:27;87383.00;;;13.68
74493;BMP180;62978;51.094;-115.362;2022-08-21T12:45:56;87385.60;;;13.70
74493;BMP180;62978;51.094;-115.362;2022-08-21T12:48:57;87385.60;;;13.50
74493;BMP180;62978;51.094;-115.362;2022-08-21T12:51:54;87384.80;;;13.40
74493;BMP180;62978;51.094;-115.362;2022-08-21T12:54:28;87380.20;;;13.48
74493;BMP180;62978;51.094;-115.362;2022-08-21T12:57:00;87382.60;;;13.40
74493;BMP180;62978;51.094;-115.362;2022-08-21T12:59:29;87382.60;;;13.46
74493;BMP180;62978;51.094;-115.362;2022-08-21T13:02:03;87382.80;;;13.50
74493;BMP180;62978;51.094;-115.362;2022-08-21T13:04:41;87378.20;;;13.50
74493;BMP180;62978;51.094;-115.362;2022-08-21T13:07:16;87376.40;;;13.50
74493;BMP180;62978;51.094;-115.362;2022-08-21T13:09:55;87375.40;;;13.60
74493;BMP180;62978;51.094;-115.362;2022-08-21T13:12:24;87382.40;;;13.60
74493;BMP180;62978;51.094;-115.362;2022-08-21T13:14:57;87381.60;;;13.60
74493;BMP180;62978;51.094;-115.362;2022-08-21T13:17:34;87386.00;;;13.60
74493;BMP180;62978;51.094;-115.362;2022-08-21T13:20:23;87386.20;;;13.70
74493;BMP180;62978;51.094;-115.362;2022-08-21T13:22:51;87392.40;;;13.70
74493;BMP180;62978;51.094;-115.362;2022-08-21T13:25:21;87395.00;;;13.70
74493;BMP180;62978;51.094;-115.362;2022-08-21T13:28:12;87396.40;;;13.68
74493;BMP180;62978;51.094;-115.362;2022-08-21T13:30:54;87405.40;;;13.60
74493;BMP180;62978;51.094;-115.362;2022-08-21T13:33:30;87405.00;;;13.60
74493;BMP180;62978;51.094;-115.362;2022-08-21T13:36:25;87413.20;;;13.70
74493;BMP180;62978;51.094;-115.362;2022-08-21T13:38:53;87410.80;;;13.80
74493;BMP180;62978;51.094;-115.362;2022-08-21T13:41:30;87413.00;;;13.80
74493;BMP180;62978;51.094;-115.362;2022-08-21T13:44:15;87413.40;;;13.80
74493;BMP180;62978;51.094;-115.362;2022-08-21T13:46:44;87413.00;;;13.90
74493;BMP180;62978;51.094;-115.362;2022-08-21T13:49:16;87413.80;;;13.80
74493;BMP180;62978;51.094;-115.362;2022-08-21T13:51:46;87419.40;;;13.80
74493;BMP180;62978;51.094;-115.362;2022-08-21T13:54:36;87417.80;;;13.90
74493;BMP180;62978;51.094;-115.362;2022-08-21T13:57:14;87420.80;;;13.90
74493;BMP180;62978;51.094;-115.362;2022-08-21T13:59:42;87417.80;;;14.00
74493;BMP180;62978;51.094;-115.362;2022-08-21T14:02:22;87423.20;;;14.08
74493;BMP180;62978;51.094;-115.362;2022-08-21T14:05:01;87425.00;;;14.10
74493;BMP180;62978;51.094;-115.362;2022-08-21T14:07:39;87422.40;;;14.20
74493;BMP180;62978;51.094;-115.362;2022-08-21T14:10:20;87422.80;;;14.32
74493;BMP180;62978;51.094;-115.362;2022-08-21T14:12:56;87419.80;;;14.40
74493;BMP180;62978;51.094;-115.362;2022-08-21T14:15:28;87415.60;;;14.50
74493;BMP180;62978;51.094;-115.362;2022-08-21T14:18:15;87414.40;;;14.60
74493;BMP180;62978;51.094;-115.362;2022-08-21T14:20:45;87411.80;;;14.72
74493;BMP180;62978;51.094;-115.362;2022-08-21T14:23:26;87408.60;;;14.80
74493;BMP180;62978;51.094;-115.362;2022-08-21T14:26:02;87407.80;;;14.90
74493;BMP180;62978;51.094;-115.362;2022-08-21T14:28:41;87409.40;;;15.00
74493;BMP180;62978;51.094;-115.362;2022-08-21T14:31:19;87408.60;;;15.10
74493;BMP180;62978;51.094;-115.362;2022-08-21T14:33:49;87407.80;;;15.16
74493;BMP180;62978;51.094;-115.362;2022-08-21T14:36:16;87402.00;;;15.20
74493;BMP180;62978;51.094;-115.362;2022-08-21T14:38:43;87400.20;;;15.30
74493;BMP180;62978;51.094;-115.362;2022-08-21T14:41:23;87400.80;;;15.44
74493;BMP180;62978;51.094;-115.362;2022-08-21T14:43:54;87403.80;;;15.66
74493;BMP180;62978;51.094;-115.362;2022-08-21T14:46:32;87403.40;;;15.80
74493;BMP180;62978;51.094;-115.362;2022-08-21T14:49:02;87406.40;;;15.90
74493;BMP180;62978;51.094;-115.362;2022-08-21T14:51:32;87408.00;;;16.04
74493;BMP180;62978;51.094;-115.362;2022-08-21T14:54:00;87408.60;;;16.20
74493;BMP180;62978;51.094;-115.362;2022-08-21T14:56:27;87402.00;;;16.40
74493;BMP180;62978;51.094;-115.362;2022-08-21T14:59:03;87405.00;;;16.50
74493;BMP180;62978;51.094;-115.362;2022-08-21T15:01:44;87401.20;;;16.62
74493;BMP180;62978;51.094;-115.362;2022-08-21T15:04:11;87400.80;;;16.70
74493;BMP180;62978;51.094;-115.362;2022-08-21T15:06:41;87398.20;;;16.78
74493;BMP180;62978;51.094;-115.362;2022-08-21T15:09:09;87401.40;;;16.78
74493;BMP180;62978;51.094;-115.362;2022-08-21T15:11:36;87402.00;;;16.82
74493;BMP180;62978;51.094;-115.362;2022-08-21T15:14:09;87398.80;;;16.90
74493;BMP180;62978;51.094;-115.362;2022-08-21T15:16:37;87396.80;;;17.00
74493;BMP180;62978;51.094;-115.362;2022-08-21T15:19:11;87393.20;;;17.08
74493;BMP180;62978;51.094;-115.362;2022-08-21T15:21:38;87400.20;;;17.20
74493;BMP180;62978;51.094;-115.362;2022-08-21T15:24:06;87394.40;;;17.30
74493;BMP180;62978;51.094;-115.362;2022-08-21T15:26:34;87398.40;;;17.50
74493;BMP180;62978;51.094;-115.362;2022-08-21T15:29:33;87394.60;;;17.68
74493;BMP180;62978;51.094;-115.362;2022-08-21T15:32:26;87392.80;;;17.90
74493;BMP180;62978;51.094;-115.362;2022-08-21T15:34:58;87393.80;;;18.10
74493;BMP180;62978;51.094;-115.362;2022-08-21T15:37:26;87393.80;;;18.30
74493;BMP180;62978;51.094;-115.362;2022-08-21T15:39:53;87399.40;;;18.50
74493;BMP180;62978;51.094;-115.362;2022-08-21T15:42:21;87399.40;;;18.68
74493;BMP180;62978;51.094;-115.362;2022-08-21T15:44:55;87403.40;;;18.80
74493;BMP180;62978;51.094;-115.362;2022-08-21T15:47:29;87403.40;;;18.90
74493;BMP180;62978;51.094;-115.362;2022-08-21T15:50:06;87402.80;;;19.00
74493;BMP180;62978;51.094;-115.362;2022-08-21T15:52:35;87404.20;;;19.20
74493;BMP180;62978;51.094;-115.362;2022-08-21T15:55:06;87404.80;;;19.38
74493;BMP180;62978;51.094;-115.362;2022-08-21T16:01:19;87402.20;;;19.60
74493;BMP180;62978;51.094;-115.362;2022-08-21T16:03:50;87399.40;;;19.70
74493;BMP180;62978;51.094;-115.362;2022-08-21T16:06:19;87396.80;;;19.70